Time;durP1;ratioP1;P1;durP2;ratioP2;P2;SDS_P1;SDS_P2;PMS_P1;PMS_P2;Temp;Humidity;BMP_temperature;BMP_pressure;BME280_temperature;BME280_humidity;BME280_pressure;Samples;Min_cycle;Max_cycle;Signal;HPM_P1;HPM_P2
2022/10/20 00:01:00;;;;;;;1.85;0.90;;;20.40;92.70;;;;;;6187187;23;45261;-76
2022/10/20 00:03:28;;;;;;;1.08;0.70;;;20.40;92.60;;;;;;6187377;23;45066;-76
2022/10/20 00:05:55;;;;;;;1.13;0.70;;;20.40;92.80;;;;;;6187464;23;45173;-76
2022/10/20 00:08:22;;;;;;;1.58;1.02;;;20.40;92.90;;;;;;6187471;23;45199;-76
2022/10/20 00:10:56;;;;;;;0.65;0.65;;;20.40;92.90;;;;;;6188807;23;45126;-75
2022/10/20 00:16:45;;;;;;;0.68;0.65;;;20.40;92.90;;;;;;6187453;22;45422;-76
2022/10/20 00:19:12;;;;;;;1.17;0.80;;;20.40;92.80;;;;;;6187643;23;46587;-76
2022/10/20 00:21:39;;;;;;;0.88;0.80;;;20.40;92.70;;;;;;6186934;23;45189;-76
2022/10/20 00:24:05;;;;;;;1.00;0.90;;;20.40;92.80;;;;;;6187381;23;45274;-76
2022/10/20 00:26:33;;;;;;;2.13;0.98;;;20.40;92.60;;;;;;6187696;23;45367;-76
2022/10/20 00:29:02;;;;;;;0.95;0.77;;;20.40;93.00;;;;;;6187377;23;47987;-76
2022/10/20 00:31:29;;;;;;;1.00;0.80;;;20.40;92.50;;;;;;6187159;23;45433;-76
2022/10/20 00:33:56;;;;;;;1.10;0.85;;;20.40;92.50;;;;;;6187550;23;45139;-76
2022/10/20 00:39:45;;;;;;;1.10;0.93;;;20.40;92.60;;;;;;6187297;23;45523;-76
2022/10/20 00:42:15;;;;;;;1.48;0.93;;;20.40;92.40;;;;;;6186894;23;46134;-76
2022/10/20 00:44:55;;;;;;;0.77;0.70;;;20.40;92.40;;;;;;6187907;23;45137;-76
2022/10/20 00:47:33;;;;;;;0.82;0.82;;;20.40;92.50;;;;;;6187276;23;45086;-76
2022/10/20 00:50:07;;;;;;;1.55;1.00;;;20.40;92.60;;;;;;6186937;23;46981;-76
2022/10/20 00:52:34;;;;;;;1.05;0.73;;;20.40;92.30;;;;;;6187128;23;45749;-76
2022/10/20 00:55:02;;;;;;;2.45;1.10;;;20.40;92.50;;;;;;6187341;23;45165;-76
2022/10/20 00:57:31;;;;;;;1.17;1.05;;;20.40;92.30;;;;;;6187643;23;45359;-76
2022/10/20 00:59:58;;;;;;;0.80;0.70;;;20.40;92.40;;;;;;6186802;23;47675;-76
2022/10/20 01:02:24;;;;;;;1.30;1.05;;;20.40;92.50;;;;;;6188677;23;45229;-76
2022/10/20 01:04:51;;;;;;;1.77;0.90;;;20.40;92.40;;;;;;6187369;23;45161;-76
2022/10/20 01:07:18;;;;;;;0.98;0.80;;;20.40;92.20;;;;;;6186949;23;45326;-76
2022/10/20 01:09:45;;;;;;;0.82;0.70;;;20.40;92.20;;;;;;6186854;23;47771;-76
2022/10/20 01:12:26;;;;;;;1.95;0.90;;;20.40;92.30;;;;;;6186887;23;45143;-76
2022/10/20 01:15:02;;;;;;;1.88;0.98;;;20.40;92.10;;;;;;6187476;23;45318;-76
2022/10/20 01:17:40;;;;;;;0.80;0.80;;;20.40;92.20;;;;;;6186677;23;45146;-76
2022/10/20 01:20:41;;;;;;;1.13;0.80;;;20.40;92.20;;;;;;6186754;23;46237;-76
2022/10/20 01:23:27;;;;;;;1.45;0.93;;;20.40;92.20;;;;;;6187126;23;45241;-76
2022/10/20 01:26:13;;;;;;;1.25;1.02;;;20.40;92.20;;;;;;6186968;23;45103;-76
2022/10/20 01:28:46;;;;;;;1.00;0.90;;;20.40;91.60;;;;;;6187081;23;45163;-76
2022/10/20 01:31:25;;;;;;;0.85;0.82;;;20.40;91.70;;;;;;6186945;23;45183;-76
2022/10/20 01:33:58;;;;;;;1.88;0.95;;;20.40;91.80;;;;;;6187070;23;45149;-76
2022/10/20 01:36:31;;;;;;;1.40;1.05;;;20.40;92.10;;;;;;6186871;23;45270;-76
2022/10/20 01:39:03;;;;;;;1.20;0.80;;;20.40;91.40;;;;;;6186951;23;45257;-76
2022/10/20 01:41:34;;;;;;;1.00;0.80;;;20.40;91.70;;;;;;6186892;23;46278;-76
2022/10/20 01:44:05;;;;;;;0.93;0.82;;;20.40;91.80;;;;;;6187272;23;45192;-77
2022/10/20 01:46:33;;;;;;;1.25;0.90;;;20.40;91.50;;;;;;6186883;23;45321;-76
2022/10/20 01:49:02;;;;;;;0.88;0.88;;;20.40;92.10;;;;;;6186703;23;45115;-76
2022/10/20 01:51:28;;;;;;;0.98;0.70;;;20.40;91.70;;;;;;6187957;23;45160;-73
2022/10/20 01:53:55;;;;;;;1.15;0.90;;;20.40;91.90;;;;;;6187122;23;45180;-76
2022/10/20 01:56:29;;;;;;;1.42;0.80;;;20.40;91.60;;;;;;6186980;23;45333;-77
2022/10/20 01:59:24;;;;;;;0.90;0.70;;;20.40;91.80;;;;;;6186702;23;45178;-77
2022/10/20 02:02:09;;;;;;;1.33;1.00;;;20.40;91.90;;;;;;6186391;23;45559;-76
2022/10/20 02:04:51;;;;;;;0.85;0.80;;;20.40;91.90;;;;;;6186538;23;45289;-76
2022/10/20 02:07:26;;;;;;;1.45;0.80;;;20.40;91.70;;;;;;6187243;23;45188;-77
2022/10/20 02:09:57;;;;;;;0.82;0.82;;;20.40;91.60;;;;;;6186651;23;45024;-76
2022/10/20 02:12:28;;;;;;;1.95;0.98;;;20.40;91.60;;;;;;6186225;23;45452;-76
2022/10/20 02:14:56;;;;;;;0.80;0.80;;;20.40;91.60;;;;;;6186557;23;45102;-76
2022/10/20 02:17:23;;;;;;;1.05;0.95;;;20.40;91.60;;;;;;6186013;23;45201;-76
2022/10/20 02:19:52;;;;;;;0.80;0.80;;;20.40;91.60;;;;;;6187546;23;45481;-77
2022/10/20 02:22:20;;;;;;;1.40;0.90;;;20.40;91.50;;;;;;6187296;23;46583;-77
2022/10/20 02:24:47;;;;;;;1.35;0.98;;;20.40;91.30;;;;;;6187551;23;45193;-77
2022/10/20 02:27:17;;;;;;;1.35;0.98;;;20.40;91.40;;;;;;6188322;23;45329;-77
2022/10/20 02:29:48;;;;;;;0.80;0.80;;;20.40;91.20;;;;;;6187896;23;45103;-76
2022/10/20 02:35:38;;;;;;;1.23;0.90;;;20.40;91.10;;;;;;6188039;23;45039;-77
2022/10/20 02:38:05;;;;;;;1.00;0.90;;;20.40;91.40;;;;;;6187838;23;45167;-76
2022/10/20 02:40:32;;;;;;;1.25;1.10;;;20.40;91.00;;;;;;6188018;23;45357;-77
2022/10/20 02:42:58;;;;;;;1.20;1.10;;;20.40;91.00;;;;;;6188537;23;46645;-76
2022/10/20 02:45:25;;;;;;;1.30;0.85;;;20.40;90.60;;;;;;6187964;23;45039;-76
2022/10/20 02:47:52;;;;;;;1.13;0.73;;;20.40;91.00;;;;;;6188281;23;45075;-77
2022/10/20 02:50:19;;;;;;;0.80;0.80;;;20.40;91.10;;;;;;6187769;23;45099;-77
2022/10/20 02:52:47;;;;;;;1.38;0.90;;;20.40;91.00;;;;;;6187408;23;46239;-77
2022/10/20 02:55:14;;;;;;;0.80;0.80;;;20.40;91.30;;;;;;6187521;23;45223;-77
2022/10/20 02:57:41;;;;;;;0.93;0.88;;;20.40;91.30;;;;;;6187824;23;45026;-76
2022/10/20 03:00:09;;;;;;;1.40;0.90;;;20.40;91.20;;;;;;6187948;23;45475;-77
2022/10/20 03:02:36;;;;;;;0.75;0.75;;;20.40;91.30;;;;;;6187383;23;47382;-76
2022/10/20 03:05:03;;;;;;;1.83;0.95;;;20.40;91.30;;;;;;6187609;23;45171;-77
2022/10/20 03:07:29;;;;;;;1.10;0.80;;;20.40;91.20;;;;;;6187589;23;45039;-77
2022/10/20 03:09:58;;;;;;;0.88;0.88;;;20.40;91.10;;;;;;6187748;23;45008;-77
2022/10/20 03:12:24;;;;;;;1.98;0.98;;;20.40;91.00;;;;;;6187350;23;46312;-77
2022/10/20 03:14:51;;;;;;;1.88;0.98;;;20.40;91.00;;;;;;6187829;23;45150;-77
2022/10/20 03:17:18;;;;;;;0.80;0.80;;;20.40;90.90;;;;;;6187364;23;45199;-77
2022/10/20 03:23:06;;;;;;;1.30;1.02;;;20.40;90.70;;;;;;6187515;23;45693;-76
2022/10/20 03:25:34;;;;;;;1.42;0.90;;;20.40;90.70;;;;;;6187381;23;45192;-76
2022/10/20 03:28:01;;;;;;;2.17;0.85;;;20.40;90.80;;;;;;6188033;23;45098;-76
2022/10/20 03:30:28;;;;;;;1.10;0.90;;;20.40;90.70;;;;;;6187306;23;45131;-77
2022/10/20 03:32:55;;;;;;;1.00;0.90;;;20.40;90.00;;;;;;6187359;23;47261;-76
2022/10/20 03:35:22;;;;;;;0.70;0.70;;;20.30;90.20;;;;;;6189593;23;45239;-76
2022/10/20 03:37:49;;;;;;;1.02;0.93;;;20.40;90.70;;;;;;6187504;23;45073;-76
2022/10/20 03:40:16;;;;;;;0.98;0.88;;;20.30;90.60;;;;;;6187642;23;45420;-76
2022/10/20 03:42:44;;;;;;;0.95;0.85;;;20.30;90.20;;;;;;6187183;23;47377;-77
2022/10/20 03:45:11;;;;;;;1.02;0.80;;;20.30;90.10;;;;;;6187213;23;45149;-76
2022/10/20 03:47:38;;;;;;;3.15;1.08;;;20.30;89.70;;;;;;6187504;23;45285;-76
2022/10/20 03:50:05;;;;;;;1.58;1.00;;;20.30;89.30;;;;;;6187460;23;45400;-76
2022/10/20 03:52:32;;;;;;;1.00;0.80;;;20.30;89.40;;;;;;6187129;23;46377;-76
2022/10/20 03:54:58;;;;;;;1.15;1.05;;;20.30;88.70;;;;;;6187616;23;45149;-76
2022/10/20 03:57:26;;;;;;;1.70;1.00;;;20.30;88.60;;;;;;6187417;23;45087;-76
2022/10/20 03:59:54;;;;;;;1.23;1.00;;;20.30;89.10;;;;;;6187378;23;45388;-76
2022/10/20 04:02:30;;;;;;;1.38;1.17;;;20.30;90.10;;;;;;6187113;23;46047;-76
2022/10/20 04:04:57;;;;;;;1.80;1.10;;;20.30;89.40;;;;;;6187219;23;45090;-76
2022/10/20 04:07:24;;;;;;;1.40;1.00;;;20.30;89.10;;;;;;6187352;23;45156;-76
2022/10/20 04:09:51;;;;;;;1.42;1.00;;;20.30;89.30;;;;;;6187357;23;45523;-75
2022/10/20 04:12:17;;;;;;;1.33;1.10;;;20.30;88.60;;;;;;6186916;23;46834;-76
2022/10/20 04:14:44;;;;;;;1.23;0.95;;;20.30;89.20;;;;;;6186996;23;45024;-76
2022/10/20 04:17:12;;;;;;;1.90;1.23;;;20.30;89.40;;;;;;6187648;23;45071;-76
2022/10/20 04:19:39;;;;;;;2.08;1.15;;;20.30;89.30;;;;;;6187376;23;45102;-76
2022/10/20 04:25:28;;;;;;;1.20;1.02;;;20.30;89.60;;;;;;6187969;23;45493;-74
2022/10/20 04:27:55;;;;;;;1.42;0.85;;;20.30;90.00;;;;;;6187112;23;45333;-75
2022/10/20 04:30:21;;;;;;;1.10;1.00;;;20.30;90.00;;;;;;6187071;23;45376;-75
2022/10/20 04:32:50;;;;;;;1.20;1.02;;;20.30;90.20;;;;;;6186891;23;45141;-75
2022/10/20 04:35:16;;;;;;;2.40;1.17;;;20.30;90.50;;;;;;6187001;23;45071;-75
2022/10/20 04:37:43;;;;;;;2.00;1.10;;;20.30;90.20;;;;;;6187249;23;45171;-76
2022/10/20 04:40:11;;;;;;;1.67;1.10;;;20.30;90.10;;;;;;6187171;23;45490;-76
2022/10/20 04:42:38;;;;;;;1.75;1.05;;;20.30;90.20;;;;;;6186729;23;48264;-76
2022/10/20 04:45:05;;;;;;;1.40;1.02;;;20.30;90.30;;;;;;6187297;23;45179;-76
2022/10/20 04:47:32;;;;;;;1.17;0.95;;;20.30;90.30;;;;;;6187153;23;45116;-76
2022/10/20 04:50:01;;;;;;;1.05;0.90;;;20.30;90.30;;;;;;6187148;23;45407;-76
2022/10/20 04:52:29;;;;;;;1.30;0.70;;;20.30;90.40;;;;;;6186615;23;46280;-75
2022/10/20 04:54:56;;;;;;;1.38;1.20;;;20.40;90.40;;;;;;6186741;23;45228;-75
2022/10/20 04:57:23;;;;;;;1.45;1.05;;;20.40;90.40;;;;;;6187043;23;45077;-75
2022/10/20 04:59:49;;;;;;;1.17;1.00;;;20.40;90.30;;;;;;6187144;23;45384;-76
2022/10/20 05:02:16;;;;;;;1.00;0.90;;;20.40;90.30;;;;;;6186658;23;47559;-76
2022/10/20 05:04:43;;;;;;;0.90;0.88;;;20.40;90.30;;;;;;6186861;23;45130;-76
2022/10/20 05:10:34;;;;;;;1.20;0.70;;;20.40;90.40;;;;;;6187460;23;45118;-77
2022/10/20 05:13:00;;;;;;;1.40;0.98;;;20.40;90.40;;;;;;6186762;23;45424;-76
2022/10/20 05:15:27;;;;;;;0.80;0.80;;;20.40;90.30;;;;;;6187639;23;45156;-75
2022/10/20 05:17:54;;;;;;;0.95;0.70;;;20.40;90.10;;;;;;6188248;23;45097;-77
2022/10/20 05:20:21;;;;;;;0.98;0.90;;;20.40;90.30;;;;;;6187017;23;45440;-76
2022/10/20 05:22:47;;;;;;;1.25;0.80;;;20.40;90.30;;;;;;6186860;23;45443;-76
2022/10/20 05:25:14;;;;;;;1.70;1.10;;;20.40;90.20;;;;;;6187166;23;45186;-76
2022/10/20 05:27:42;;;;;;;1.00;0.90;;;20.40;90.40;;;;;;6186959;23;45088;-77
2022/10/20 05:30:10;;;;;;;1.00;0.82;;;20.40;90.20;;;;;;6187529;23;45079;-76
2022/10/20 05:32:37;;;;;;;1.50;1.00;;;20.40;90.30;;;;;;6186089;23;46435;-76
2022/10/20 05:35:04;;;;;;;2.17;0.80;;;20.40;90.40;;;;;;6186721;23;45706;-76
2022/10/20 05:37:31;;;;;;;0.70;0.70;;;20.40;90.50;;;;;;6186354;23;45096;-76
2022/10/20 05:39:58;;;;;;;1.30;0.90;;;20.40;90.40;;;;;;6187106;23;45475;-77
2022/10/20 05:42:25;;;;;;;1.00;0.90;;;20.40;90.40;;;;;;6186565;23;47344;-76
2022/10/20 05:44:53;;;;;;;1.33;0.90;;;20.40;90.60;;;;;;6186708;23;45350;-75
2022/10/20 05:47:20;;;;;;;0.98;0.82;;;20.40;90.40;;;;;;6186600;23;45267;-76
2022/10/20 05:49:48;;;;;;;1.30;1.08;;;20.40;90.30;;;;;;6186743;23;45179;-76
2022/10/20 05:52:14;;;;;;;2.15;0.85;;;20.40;90.30;;;;;;6186065;23;47717;-75
2022/10/20 05:54:42;;;;;;;0.85;0.77;;;20.40;90.40;;;;;;6186975;23;45351;-75
2022/10/20 05:57:08;;;;;;;0.95;0.82;;;20.40;90.30;;;;;;6187653;23;45096;-76
2022/10/20 05:59:35;;;;;;;0.95;0.60;;;20.40;90.30;;;;;;6187886;23;45101;-76
2022/10/20 06:02:03;;;;;;;1.73;1.00;;;20.40;90.50;;;;;;6187594;23;47546;-76
2022/10/20 06:04:31;;;;;;;1.10;1.00;;;20.40;90.30;;;;;;6187395;23;45207;-76
2022/10/20 06:06:58;;;;;;;0.88;0.88;;;20.40;90.30;;;;;;6189234;23;45176;-76
2022/10/20 06:09:25;;;;;;;1.15;0.80;;;20.40;90.50;;;;;;6188683;23;45260;-76
2022/10/20 06:15:14;;;;;;;1.05;0.88;;;20.40;90.20;;;;;;6187997;23;45286;-76
2022/10/20 06:17:42;;;;;;;1.27;1.10;;;20.40;90.10;;;;;;6187604;23;45449;-77
2022/10/20 06:20:09;;;;;;;1.35;1.00;;;20.40;90.00;;;;;;6187741;23;45483;-76
2022/10/20 06:22:36;;;;;;;1.08;0.90;;;20.40;89.80;;;;;;6187507;23;46573;-76
2022/10/20 06:25:03;;;;;;;1.15;1.05;;;20.40;90.00;;;;;;6188017;23;45130;-76
2022/10/20 06:27:30;;;;;;;1.40;0.90;;;20.40;89.80;;;;;;6187931;23;45162;-76
2022/10/20 06:29:57;;;;;;;1.10;0.90;;;20.40;90.00;;;;;;6188071;23;45463;-76
2022/10/20 06:32:23;;;;;;;0.98;0.82;;;20.40;89.40;;;;;;6187585;23;48446;-77
2022/10/20 06:34:52;;;;;;;0.85;0.82;;;20.40;90.00;;;;;;6187655;23;45208;-76
2022/10/20 06:37:19;;;;;;;0.70;0.70;;;20.40;90.10;;;;;;6187959;23;45087;-76
2022/10/20 06:39:46;;;;;;;1.00;0.90;;;20.40;90.00;;;;;;6187796;23;45092;-77
2022/10/20 06:42:13;;;;;;;1.33;0.80;;;20.40;89.60;;;;;;6187444;23;45668;-76
2022/10/20 06:44:40;;;;;;;0.93;0.80;;;20.40;89.40;;;;;;6187627;23;45189;-76
2022/10/20 06:47:09;;;;;;;1.73;0.95;;;20.40;89.70;;;;;;6187765;23;45150;-77
2022/10/20 06:49:35;;;;;;;0.82;0.80;;;20.40;89.70;;;;;;6188252;23;45369;-77
2022/10/20 06:52:04;;;;;;;1.02;0.80;;;20.40;89.70;;;;;;6187493;23;46278;-77
2022/10/20 06:54:31;;;;;;;1.00;0.90;;;20.40;89.30;;;;;;6187544;23;45265;-77
2022/10/20 06:56:58;;;;;;;1.75;0.95;;;20.40;89.50;;;;;;6187811;23;45300;-77
2022/10/20 06:59:24;;;;;;;1.20;0.90;;;20.40;89.70;;;;;;6190294;23;45070;-76
2022/10/20 07:01:51;;;;;;;0.80;0.80;;;20.40;90.00;;;;;;6187757;23;45218;-77
2022/10/20 07:04:18;;;;;;;1.98;0.90;;;20.40;89.40;;;;;;6187729;23;46554;-76
2022/10/20 07:06:46;;;;;;;0.90;0.88;;;20.40;89.90;;;;;;6187527;23;45119;-77
2022/10/20 07:09:16;;;;;;;1.67;1.00;;;20.40;89.80;;;;;;6187871;23;45527;-77
2022/10/20 07:11:44;;;;;;;0.90;0.70;;;20.40;89.80;;;;;;6187875;23;47809;-77
2022/10/20 07:14:12;;;;;;;1.83;0.98;;;20.40;89.90;;;;;;6187621;23;45254;-76
2022/10/20 07:16:39;;;;;;;1.05;0.93;;;20.40;89.40;;;;;;6187726;23;45174;-77
2022/10/20 07:19:06;;;;;;;0.85;0.80;;;20.40;89.50;;;;;;6187917;23;45086;-77
2022/10/20 07:21:35;;;;;;;0.90;0.90;;;20.40;89.80;;;;;;6187280;23;45445;-77
2022/10/20 07:24:03;;;;;;;1.08;0.88;;;20.30;89.40;;;;;;6187353;23;45378;-76
2022/10/20 07:26:33;;;;;;;0.80;0.70;;;20.40;89.60;;;;;;6187822;23;45052;-77
2022/10/20 07:29:01;;;;;;;1.30;1.00;;;20.40;90.00;;;;;;6187630;23;45478;-77
2022/10/20 07:31:30;;;;;;;1.00;0.90;;;20.40;89.80;;;;;;6187263;23;47669;-76
2022/10/20 07:33:58;;;;;;;1.23;0.70;;;20.40;89.60;;;;;;6187505;23;45187;-76
2022/10/20 07:36:27;;;;;;;0.90;0.80;;;20.40;89.60;;;;;;6187549;23;45236;-77
2022/10/20 07:42:17;;;;;;;1.05;0.90;;;20.40;89.50;;;;;;6187505;23;45306;-77
2022/10/20 07:44:44;;;;;;;0.90;0.60;;;20.40;89.60;;;;;;6187684;23;45824;-77
2022/10/20 07:47:11;;;;;;;1.08;0.98;;;20.40;89.50;;;;;;6161055;23;45123;-76
2022/10/20 07:52:59;;;;;;;1.35;1.00;;;20.40;89.50;;;;;;6187450;23;45679;-76
2022/10/20 07:55:26;;;;;;;1.00;0.90;;;20.40;89.80;;;;;;6187419;23;45225;-76
2022/10/20 07:57:54;;;;;;;0.60;0.60;;;20.40;89.40;;;;;;6187883;23;45171;-76
2022/10/20 08:03:43;;;;;;;1.55;0.90;;;20.30;89.70;;;;;;6187450;23;45085;-77
2022/10/20 08:06:09;;;;;;;0.98;0.88;;;20.40;89.70;;;;;;6187428;23;45023;-76
2022/10/20 08:08:36;;;;;;;1.08;0.80;;;20.40;89.70;;;;;;6187317;23;45151;-76
2022/10/20 08:11:03;;;;;;;1.15;0.85;;;20.30;89.40;;;;;;6187520;23;45616;-76
2022/10/20 08:13:31;;;;;;;1.40;1.15;;;20.40;89.30;;;;;;6187133;23;46599;-76
2022/10/20 08:15:58;;;;;;;1.80;0.85;;;20.40;88.80;;;;;;6187600;23;45164;-76
2022/10/20 08:18:25;;;;;;;1.20;0.98;;;20.40;88.90;;;;;;6187460;23;45305;-77
2022/10/20 08:24:14;;;;;;;0.95;0.80;;;20.40;89.50;;;;;;6187241;23;45269;-76
2022/10/20 08:26:40;;;;;;;0.90;0.80;;;20.40;89.40;;;;;;6187149;23;45687;-77
2022/10/20 08:29:17;;;;;;;1.20;0.80;;;20.40;89.70;;;;;;6187298;23;45262;-76
2022/10/20 08:31:44;;;;;;;1.15;0.90;;;20.40;89.60;;;;;;6187617;23;45124;-77
2022/10/20 08:34:10;;;;;;;1.10;1.00;;;20.40;89.50;;;;;;6187019;23;47325;-77
2022/10/20 08:36:37;;;;;;;1.25;0.90;;;20.40;89.40;;;;;;6187432;23;45098;-77
2022/10/20 08:39:04;;;;;;;1.08;0.93;;;20.40;89.40;;;;;;6187302;23;45031;-77
2022/10/20 08:41:33;;;;;;;0.75;0.75;;;20.40;89.20;;;;;;6190306;23;45363;-77
2022/10/20 08:44:04;;;;;;;1.30;0.90;;;20.40;89.30;;;;;;6187028;23;46388;-76
2022/10/20 08:46:35;;;;;;;1.33;0.90;;;20.40;89.20;;;;;;6187132;23;45185;-77
2022/10/20 08:49:04;;;;;;;1.45;0.95;;;20.40;89.80;;;;;;6187292;23;45195;-77
2022/10/20 08:51:35;;;;;;;1.20;0.90;;;20.40;89.60;;;;;;6187283;23;45090;-75
2022/10/20 08:54:03;;;;;;;1.60;1.10;;;20.40;89.20;;;;;;6186710;23;45861;-74
2022/10/20 08:56:32;;;;;;;3.60;0.90;;;20.40;89.40;;;;;;6186653;23;45243;-74
2022/10/20 08:59:00;;;;;;;1.33;1.00;;;20.40;89.60;;;;;;6186598;23;45328;-74
2022/10/20 09:01:29;;;;;;;1.13;0.93;;;20.40;89.50;;;;;;6187110;23;45423;-74
2022/10/20 09:04:00;;;;;;;0.90;0.73;;;20.40;89.60;;;;;;6187158;23;45277;-75
2022/10/20 09:06:26;;;;;;;0.90;0.75;;;20.50;89.60;;;;;;6186895;23;45103;-75
2022/10/20 09:08:55;;;;;;;1.75;1.15;;;20.40;89.60;;;;;;6187088;23;45051;-75
2022/10/20 09:11:25;;;;;;;1.10;0.98;;;20.50;89.50;;;;;;6186986;23;45495;-76
2022/10/20 09:13:53;;;;;;;2.60;1.20;;;20.40;89.40;;;;;;6186845;23;47594;-75
2022/10/20 09:16:26;;;;;;;0.80;0.80;;;20.40;89.50;;;;;;6186568;23;45304;-75
2022/10/20 09:18:59;;;;;;;1.38;0.90;;;20.50;89.50;;;;;;6187466;23;45187;-75
2022/10/20 09:21:26;;;;;;;0.98;0.88;;;20.40;89.30;;;;;;6187349;23;45356;-75
2022/10/20 09:23:57;;;;;;;2.55;1.00;;;20.40;89.20;;;;;;6186582;23;46535;-76
2022/10/20 09:26:32;;;;;;;1.48;0.95;;;20.40;89.30;;;;;;6186750;23;45913;-76
2022/10/20 09:29:05;;;;;;;1.25;0.90;;;20.50;89.30;;;;;;6186443;23;45282;-76
2022/10/20 09:31:34;;;;;;;1.33;1.02;;;20.50;89.20;;;;;;6189974;23;45131;-76
2022/10/20 09:34:19;;;;;;;1.00;0.85;;;20.40;89.10;;;;;;6187511;23;46240;-76
2022/10/20 09:36:46;;;;;;;0.80;0.80;;;20.40;88.90;;;;;;6186800;23;45179;-76
2022/10/20 09:42:40;;;;;;;1.33;0.90;;;20.40;88.60;;;;;;6187047;23;45164;-76
2022/10/20 09:45:17;;;;;;;1.55;0.90;;;20.50;88.90;;;;;;6186358;23;46947;-76
2022/10/20 09:47:51;;;;;;;3.08;1.10;;;20.50;88.80;;;;;;6187032;23;45764;-76
2022/10/20 09:50:25;;;;;;;1.45;0.80;;;20.50;88.90;;;;;;6187326;23;45328;-76
2022/10/20 09:52:53;;;;;;;6.55;1.20;;;20.50;88.90;;;;;;6186830;23;45135;-76
2022/10/20 09:55:27;;;;;;;1.10;1.00;;;20.50;88.70;;;;;;6186649;23;45304;-76
2022/10/20 09:57:55;;;;;;;1.23;1.02;;;20.40;88.20;;;;;;6186931;23;45117;-76
2022/10/20 10:00:27;;;;;;;1.38;1.00;;;20.50;88.60;;;;;;6187027;23;45266;-76
2022/10/20 10:03:25;;;;;;;1.05;0.95;;;20.50;88.90;;;;;;6187002;23;45382;-76
2022/10/20 10:05:55;;;;;;;1.52;0.75;;;20.40;89.00;;;;;;6184946;23;47049;-76
2022/10/20 10:08:32;;;;;;;1.20;1.10;;;20.40;89.00;;;;;;6186889;23;45134;-76
2022/10/20 10:14:22;;;;;;;2.50;1.20;;;20.40;88.90;;;;;;6186950;23;45039;-76
2022/10/20 10:16:49;;;;;;;1.10;1.00;;;20.40;88.90;;;;;;6186282;22;45279;-76
2022/10/20 10:19:19;;;;;;;1.25;0.90;;;20.50;89.90;;;;;;6186254;23;46025;-76
2022/10/20 10:21:55;;;;;;;2.20;1.10;;;20.40;88.80;;;;;;6187531;23;45087;-73
2022/10/20 10:24:45;;;;;;;2.05;1.00;;;20.50;88.80;;;;;;6187735;23;45478;-76
2022/10/20 10:27:26;;;;;;;1.60;1.20;;;20.50;88.60;;;;;;6186477;23;47386;-76
2022/10/20 10:29:53;;;;;;;1.15;0.98;;;20.40;88.60;;;;;;6186381;23;45267;-76
2022/10/20 10:32:25;;;;;;;2.35;0.95;;;20.40;88.50;;;;;;6186223;23;45101;-76
2022/10/20 10:35:25;;;;;;;0.93;0.80;;;20.40;88.60;;;;;;6186899;23;45494;-76
2022/10/20 11:20:46;;;;;;;1.80;1.17;;;20.50;89.00;;;;;;6190541;22;45242;-76
2022/10/20 11:27:15;;;;;;;2.55;1.30;;;20.40;88.80;;;;;;6187576;23;45130;-75
2022/10/20 11:29:45;;;;;;;2.25;0.90;;;20.40;88.90;;;;;;6187351;23;46529;-75
2022/10/20 11:32:22;;;;;;;1.30;1.20;;;20.40;88.90;;;;;;6187447;23;45295;-76
2022/10/20 11:34:56;;;;;;;1.90;1.30;;;20.40;88.90;;;;;;6187611;23;45158;-76
2022/10/20 11:37:28;;;;;;;1.50;1.15;;;20.40;89.00;;;;;;6187577;23;45499;-76
2022/10/20 11:40:02;;;;;;;1.60;1.13;;;20.40;89.00;;;;;;6187221;23;46249;-75
2022/10/20 11:42:37;;;;;;;1.35;1.17;;;20.40;89.10;;;;;;6187433;23;45028;-75
2022/10/20 11:45:22;;;;;;;1.90;1.33;;;20.40;89.00;;;;;;6187395;23;45103;-76
2022/10/20 11:47:54;;;;;;;1.40;1.15;;;20.40;89.20;;;;;;6188092;23;45077;-76
2022/10/20 11:50:20;;;;;;;1.33;1.23;;;20.50;89.40;;;;;;6187679;23;46282;-76
2022/10/20 11:53:03;;;;;;;1.65;1.30;;;20.50;89.40;;;;;;6186975;23;45019;-77
2022/10/20 11:55:46;;;;;;;1.42;1.20;;;20.40;89.40;;;;;;6187690;23;45166;-76
2022/10/20 11:58:27;;;;;;;1.17;1.08;;;20.50;89.50;;;;;;6187794;23;45310;-76
2022/10/20 12:01:05;;;;;;;2.20;1.40;;;20.50;89.40;;;;;;6187588;23;46193;-76
2022/10/20 12:04:04;;;;;;;2.78;1.50;;;20.50;89.40;;;;;;6187738;23;45128;-74
2022/10/20 12:06:54;;;;;;;1.85;1.30;;;20.50;90.10;;;;;;6188091;23;45019;-77
2022/10/20 12:09:43;;;;;;;2.22;1.48;;;20.50;89.60;;;;;;6187418;23;45489;-76
2022/10/20 12:12:14;;;;;;;2.42;1.50;;;20.50;89.20;;;;;;6162233;23;47573;-77
2022/10/20 12:14:44;;;;;;;2.15;1.27;;;20.50;89.40;;;;;;6187606;23;45761;-77
2022/10/20 12:20:51;;;;;;;1.70;1.30;;;20.50;89.30;;;;;;6187395;23;45470;-77
2022/10/20 12:24:04;;;;;;;1.40;1.30;;;20.50;89.40;;;;;;6187410;23;46746;-77
2022/10/20 12:27:22;;;;;;;1.63;1.25;;;20.50;89.50;;;;;;6186828;23;45221;-77
2022/10/20 12:33:09;;;;;;;1.73;1.23;;;20.40;89.70;;;;;;6187528;23;45171;-76
2022/10/20 12:36:37;;;;;;;2.80;1.20;;;20.70;90.00;;;;;;6187324;23;45861;-76
2022/10/20 12:39:18;;;;;;;1.40;1.25;;;21.00;90.10;;;;;;6187122;23;45727;-75
2022/10/20 12:42:01;;;;;;;2.28;1.55;;;20.60;90.00;;;;;;6187247;23;45055;-75
2022/10/20 12:44:32;;;;;;;1.55;1.33;;;20.40;89.80;;;;;;6183401;23;45501;-76
2022/10/20 12:50:32;;;;;;;1.65;1.42;;;20.50;90.00;;;;;;6187255;23;45176;-76
2022/10/20 13:06:41;;;;;;;1.92;1.55;;;20.50;89.70;;;;;;6187442;23;45165;-76
2022/10/20 13:09:20;;;;;;;2.47;1.65;;;20.50;89.60;;;;;;6121180;23;45273;-76
2022/10/20 13:12:05;;;;;;;2.03;1.50;;;20.50;89.60;;;;;;6187140;23;48142;-76
2022/10/20 13:14:54;;;;;;;2.30;1.50;;;20.50;89.80;;;;;;6186813;23;45201;-76
2022/10/20 13:17:30;;;;;;;1.90;1.30;;;20.50;89.90;;;;;;6186886;23;45262;-77
2022/10/20 13:20:01;;;;;;;2.03;1.70;;;20.50;90.00;;;;;;6187016;23;45407;-76
2022/10/20 13:22:45;;;;;;;1.63;1.33;;;20.50;90.00;;;;;;6186632;23;45337;-75
2022/10/20 13:25:42;;;;;;;1.70;1.60;;;20.50;90.00;;;;;;6186617;23;45170;-76
2022/10/20 13:31:34;;;;;;;2.55;1.55;;;20.50;90.00;;;;;;6187256;23;45242;-76
2022/10/20 13:34:11;;;;;;;1.25;1.15;;;20.50;90.00;;;;;;6186468;23;47286;-75
2022/10/20 13:36:58;;;;;;;3.05;1.58;;;20.50;89.90;;;;;;6186901;23;45086;-76
2022/10/20 13:39:34;;;;;;;1.58;1.30;;;20.50;89.90;;;;;;6187121;23;45030;-76
2022/10/20 13:42:12;;;;;;;2.50;1.52;;;20.60;89.90;;;;;;6187030;23;45068;-76
2022/10/20 13:48:26;;;;;;;1.85;1.45;;;20.50;89.90;;;;;;6189200;23;45078;-76
2022/10/20 13:50:58;;;;;;;2.47;1.85;;;20.60;89.90;;;;;;6186956;23;45241;-76
2022/10/20 13:53:29;;;;;;;2.63;1.48;;;20.60;89.80;;;;;;6186777;23;45375;-76
2022/10/20 13:56:05;;;;;;;2.33;1.75;;;20.60;89.80;;;;;;6186504;23;48282;-76
2022/10/20 13:58:33;;;;;;;1.58;1.27;;;20.60;89.60;;;;;;6186282;23;45154;-75
2022/10/20 14:04:27;;;;;;;3.20;1.35;;;20.60;89.60;;;;;;6186599;23;45232;-75
2022/10/20 14:06:54;;;;;;;1.45;1.35;;;20.60;89.60;;;;;;6185700;23;47050;-75
2022/10/20 14:09:23;;;;;;;2.50;1.38;;;20.50;89.60;;;;;;6186246;23;45417;-76
2022/10/20 14:11:53;;;;;;;1.50;1.40;;;20.50;89.80;;;;;;6186629;23;45320;-76
2022/10/20 14:14:23;;;;;;;1.75;1.40;;;20.60;90.00;;;;;;6186479;23;45012;-75
2022/10/20 14:16:54;;;;;;;1.52;1.35;;;20.50;89.90;;;;;;6187523;23;46111;-76
2022/10/20 14:19:26;;;;;;;2.03;1.45;;;20.50;89.90;;;;;;6187409;23;45081;-76
2022/10/20 14:25:15;;;;;;;2.47;1.50;;;20.50;90.00;;;;;;6188161;23;45179;-76
2022/10/20 14:27:46;;;;;;;1.65;1.20;;;20.50;90.00;;;;;;6187683;23;46547;-76
2022/10/20 14:30:16;;;;;;;2.50;1.70;;;20.50;90.00;;;;;;6187939;23;45225;-76
2022/10/20 14:32:44;;;;;;;2.58;1.55;;;20.50;90.00;;;;;;6187775;23;45261;-77
2022/10/20 14:38:36;;;;;;;2.40;1.58;;;20.50;89.80;;;;;;6190557;23;45106;-76
2022/10/20 14:41:07;;;;;;;2.08;1.60;;;20.50;89.70;;;;;;6187739;23;45160;-77
2022/10/20 14:53:34;;;;;;;2.35;1.33;;;20.50;90.00;;;;;;6187749;23;45183;-76
2022/10/20 14:56:03;;;;;;;2.70;1.90;;;20.50;90.00;;;;;;6188047;23;45178;-76
2022/10/20 14:58:34;;;;;;;2.65;1.80;;;20.50;89.90;;;;;;6187776;23;45155;-76
2022/10/20 15:01:26;;;;;;;2.38;1.83;;;20.50;89.80;;;;;;6187231;23;45509;-76
2022/10/20 15:04:14;;;;;;;2.08;1.40;;;20.50;89.80;;;;;;6181492;23;45349;-76
2022/10/20 15:10:23;;;;;;;1.70;1.40;;;20.50;90.00;;;;;;6188137;23;45272;-77
2022/10/20 16:20:35;;;;;;;1.83;1.50;;;20.30;90.40;;;;;;5970604;23;45679;-75
2022/10/20 16:23:02;;;;;;;2.92;1.90;;;20.50;90.40;;;;;;6137652;23;45354;-76
2022/10/20 16:25:29;;;;;;;1.90;1.60;;;20.50;90.20;;;;;;6156713;23;45269;-75
2022/10/20 16:27:56;;;;;;;4.18;1.90;;;20.50;90.00;;;;;;6157224;23;45524;-76
2022/10/20 16:30:22;;;;;;;2.75;2.13;;;20.50;90.00;;;;;;6156856;23;46294;-76
2022/10/20 16:32:49;;;;;;;1.77;1.55;;;20.50;89.90;;;;;;6157409;23;45233;-76
2022/10/20 16:35:16;;;;;;;2.22;1.30;;;20.50;90.00;;;;;;6157753;23;45090;-76
2022/10/20 16:41:09;;;;;;;1.63;1.50;;;20.50;90.00;;;;;;6157256;23;45587;-76
2022/10/20 16:47:02;;;;;;;1.98;1.67;;;20.50;89.90;;;;;;6157430;23;45122;-77